sensor_id;sensor_type;location;lat;lon;timestamp;pressure;altitude;pressure_sealevel;temperature
41654;BMP280;30790;52.030;7.110;2022-11-03T00:01:40;100850.34;;;20.68
41654;BMP280;30790;52.030;7.110;2022-11-03T00:04:08;100837.59;;;20.57
41654;BMP280;30790;52.030;7.110;2022-11-03T00:06:34;100859.16;;;20.59
41654;BMP280;30790;52.030;7.110;2022-11-03T00:09:02;100847.78;;;20.62
41654;BMP280;30790;52.030;7.110;2022-11-03T00:11:27;100852.88;;;20.58
41654;BMP280;30790;52.030;7.110;2022-11-03T00:13:53;100849.19;;;20.64
41654;BMP280;30790;52.030;7.110;2022-11-03T00:16:19;100843.50;;;20.54
41654;BMP280;30790;52.030;7.110;2022-11-03T00:18:45;100846.59;;;20.58
41654;BMP280;30790;52.030;7.110;2022-11-03T00:21:12;100844.78;;;20.63
41654;BMP280;30790;52.030;7.110;2022-11-03T00:23:42;100835.34;;;20.54
41654;BMP280;30790;52.030;7.110;2022-11-03T00:26:17;100841.25;;;20.63
41654;BMP280;30790;52.030;7.110;2022-11-03T00:28:44;100837.59;;;20.57
41654;BMP280;30790;52.030;7.110;2022-11-03T00:31:19;100839.50;;;20.57
41654;BMP280;30790;52.030;7.110;2022-11-03T00:33:45;100835.94;;;20.56
41654;BMP280;30790;52.030;7.110;2022-11-03T00:36:12;100834.63;;;20.59
41654;BMP280;30790;52.030;7.110;2022-11-03T00:38:38;100839.50;;;20.57
41654;BMP280;30790;52.030;7.110;2022-11-03T00:41:05;100821.00;;;20.59
41654;BMP280;30790;52.030;7.110;2022-11-03T00:43:32;100824.28;;;20.61
41654;BMP280;30790;52.030;7.110;2022-11-03T00:45:57;100820.66;;;20.55
41654;BMP280;30790;52.030;7.110;2022-11-03T00:48:23;100822.41;;;20.61
41654;BMP280;30790;52.030;7.110;2022-11-03T00:51:02;100825.63;;;20.58
41654;BMP280;30790;52.030;7.110;2022-11-03T00:53:28;100824.66;;;20.53
41654;BMP280;30790;52.030;7.110;2022-11-03T00:55:54;100819.22;;;20.53
41654;BMP280;30790;52.030;7.110;2022-11-03T00:58:20;100805.00;;;20.51
41654;BMP280;30790;52.030;7.110;2022-11-03T01:00:45;100805.50;;;20.48
41654;BMP280;30790;52.030;7.110;2022-11-03T01:03:11;100815.66;;;20.52
41654;BMP280;30790;52.030;7.110;2022-11-03T01:05:40;100800.94;;;20.53
41654;BMP280;30790;52.030;7.110;2022-11-03T01:08:24;100803.00;;;20.46
41654;BMP280;30790;52.030;7.110;2022-11-03T01:10:49;100790.44;;;20.45
41654;BMP280;30790;52.030;7.110;2022-11-03T01:13:33;100796.16;;;20.44
41654;BMP280;30790;52.030;7.110;2022-11-03T01:15:59;100797.56;;;20.46
41654;BMP280;30790;52.030;7.110;2022-11-03T01:18:24;100786.66;;;20.46
41654;BMP280;30790;52.030;7.110;2022-11-03T01:20:54;100789.13;;;20.48
41654;BMP280;30790;52.030;7.110;2022-11-03T01:23:20;100784.16;;;20.45
41654;BMP280;30790;52.030;7.110;2022-11-03T01:25:45;100783.34;;;20.44
41654;BMP280;30790;52.030;7.110;2022-11-03T01:31:32;100769.72;;;20.44
41654;BMP280;30790;52.030;7.110;2022-11-03T01:33:57;100759.88;;;20.43
41654;BMP280;30790;52.030;7.110;2022-11-03T01:36:23;100747.91;;;20.44
41654;BMP280;30790;52.030;7.110;2022-11-03T01:38:49;100750.03;;;20.42
41654;BMP280;30790;52.030;7.110;2022-11-03T01:41:20;100752.28;;;20.45
41654;BMP280;30790;52.030;7.110;2022-11-03T01:43:49;100740.69;;;20.38
41654;BMP280;30790;52.030;7.110;2022-11-03T01:46:27;100738.31;;;20.42
41654;BMP280;30790;52.030;7.110;2022-11-03T01:49:22;100737.00;;;20.44
41654;BMP280;30790;52.030;7.110;2022-11-03T01:51:53;100727.66;;;20.40
41654;BMP280;30790;52.030;7.110;2022-11-03T01:54:22;100712.34;;;20.39
41654;BMP280;30790;52.030;7.110;2022-11-03T01:56:50;100708.22;;;20.36
41654;BMP280;30790;52.030;7.110;2022-11-03T01:59:17;100722.41;;;20.38
41654;BMP280;30790;52.030;7.110;2022-11-03T02:01:45;100710.69;;;20.38
41654;BMP280;30790;52.030;7.110;2022-11-03T02:04:20;100704.41;;;20.37
41654;BMP280;30790;52.030;7.110;2022-11-03T02:06:51;100691.03;;;20.36
41654;BMP280;30790;52.030;7.110;2022-11-03T02:09:19;100694.31;;;20.38
41654;BMP280;30790;52.030;7.110;2022-11-03T02:11:44;100690.19;;;20.35
41654;BMP280;30790;52.030;7.110;2022-11-03T02:14:28;100681.44;;;20.33
41654;BMP280;30790;52.030;7.110;2022-11-03T02:16:56;100694.81;;;20.35
41654;BMP280;30790;52.030;7.110;2022-11-03T02:21:58;100686.91;;;20.33
41654;BMP280;30790;52.030;7.110;2022-11-03T02:24:46;100686.66;;;20.35
41654;BMP280;30790;52.030;7.110;2022-11-03T02:27:13;100674.09;;;20.34
41654;BMP280;30790;52.030;7.110;2022-11-03T02:29:39;100671.38;;;20.34
41654;BMP280;30790;52.030;7.110;2022-11-03T02:32:10;100660.72;;;20.32
41654;BMP280;30790;52.030;7.110;2022-11-03T02:34:47;100665.09;;;20.33
41654;BMP280;30790;52.030;7.110;2022-11-03T02:37:16;100658.81;;;20.33
41654;BMP280;30790;52.030;7.110;2022-11-03T02:39:52;100660.13;;;20.30
41654;BMP280;30790;52.030;7.110;2022-11-03T02:42:22;100642.94;;;20.30
41654;BMP280;30790;52.030;7.110;2022-11-03T02:44:50;100636.16;;;20.32
41654;BMP280;30790;52.030;7.110;2022-11-03T02:47:16;100643.78;;;20.30
41654;BMP280;30790;52.030;7.110;2022-11-03T02:49:47;100647.81;;;20.28
41654;BMP280;30790;52.030;7.110;2022-11-03T02:52:43;100641.38;;;20.34
41654;BMP280;30790;52.030;7.110;2022-11-03T02:55:16;100638.56;;;20.29
41654;BMP280;30790;52.030;7.110;2022-11-03T02:57:53;100632.88;;;20.30
41654;BMP280;30790;52.030;7.110;2022-11-03T03:00:20;100629.91;;;20.32
41654;BMP280;30790;52.030;7.110;2022-11-03T03:02:58;100631.47;;;20.28
41654;BMP280;30790;52.030;7.110;2022-11-03T03:05:29;100621.97;;;20.30
41654;BMP280;30790;52.030;7.110;2022-11-03T03:08:00;100616.75;;;20.29
41654;BMP280;30790;52.030;7.110;2022-11-03T03:10:31;100626.84;;;20.28
41654;BMP280;30790;52.030;7.110;2022-11-03T03:12:59;100620.78;;;20.26
41654;BMP280;30790;52.030;7.110;2022-11-03T03:23:58;100612.38;;;20.28
41654;BMP280;30790;52.030;7.110;2022-11-03T03:26:32;100607.16;;;20.26
41654;BMP280;30790;52.030;7.110;2022-11-03T03:31:45;100607.16;;;20.26
41654;BMP280;30790;52.030;7.110;2022-11-03T03:34:14;100595.69;;;20.24
41654;BMP280;30790;52.030;7.110;2022-11-03T03:36:42;100608.59;;;20.29
41654;BMP280;30790;52.030;7.110;2022-11-03T03:39:10;100608.09;;;20.32
41654;BMP280;30790;52.030;7.110;2022-11-03T03:41:37;100595.03;;;20.34
41654;BMP280;30790;52.030;7.110;2022-11-03T03:44:05;100595.03;;;20.34
41654;BMP280;30790;52.030;7.110;2022-11-03T03:46:39;100587.94;;;20.33
41654;BMP280;30790;52.030;7.110;2022-11-03T03:49:06;100590.66;;;20.33
41654;BMP280;30790;52.030;7.110;2022-11-03T03:51:32;100581.66;;;20.32
41654;BMP280;30790;52.030;7.110;2022-11-03T03:53:58;100580.81;;;20.32
41654;BMP280;30790;52.030;7.110;2022-11-03T03:56:31;100591.22;;;20.35
41654;BMP280;30790;52.030;7.110;2022-11-03T03:59:00;100580.06;;;20.36
41654;BMP280;30790;52.030;7.110;2022-11-03T04:01:25;100566.94;;;20.33
41654;BMP280;30790;52.030;7.110;2022-11-03T04:03:50;100568.34;;;20.36
41654;BMP280;30790;52.030;7.110;2022-11-03T04:06:15;100568.34;;;20.36
41654;BMP280;30790;52.030;7.110;2022-11-03T04:08:41;100565.28;;;20.32
41654;BMP280;30790;52.030;7.110;2022-11-03T04:11:06;100575.81;;;20.41
41654;BMP280;30790;52.030;7.110;2022-11-03T04:13:50;100574.97;;;20.40
41654;BMP280;30790;52.030;7.110;2022-11-03T04:16:34;100563.00;;;20.41
41654;BMP280;30790;52.030;7.110;2022-11-03T04:19:18;100568.44;;;20.41
41654;BMP280;30790;52.030;7.110;2022-11-03T04:22:02;100557.53;;;20.41
41654;BMP280;30790;52.030;7.110;2022-11-03T04:24:44;100563.00;;;20.41
41654;BMP280;30790;52.030;7.110;2022-11-03T04:27:31;100549.59;;;20.40
41654;BMP280;30790;52.030;7.110;2022-11-03T04:32:38;100540.25;;;20.35
41654;BMP280;30790;52.030;7.110;2022-11-03T04:35:14;100552.09;;;20.41
41654;BMP280;30790;52.030;7.110;2022-11-03T04:37:40;100540.34;;;20.41
41654;BMP280;30790;52.030;7.110;2022-11-03T04:40:13;100540.59;;;20.39
41654;BMP280;30790;52.030;7.110;2022-11-03T04:42:39;100524.16;;;20.34
41654;BMP280;30790;52.030;7.110;2022-11-03T04:45:13;100530.28;;;20.41
41654;BMP280;30790;52.030;7.110;2022-11-03T04:47:41;100516.03;;;20.39
41654;BMP280;30790;52.030;7.110;2022-11-03T04:50:14;100524.00;;;20.41
41654;BMP280;30790;52.030;7.110;2022-11-03T04:52:40;100524.00;;;20.41
41654;BMP280;30790;52.030;7.110;2022-11-03T04:55:10;100521.50;;;20.39
41654;BMP280;30790;52.030;7.110;2022-11-03T04:57:39;100511.91;;;20.36
41654;BMP280;30790;52.030;7.110;2022-11-03T05:00:05;100521.50;;;20.39
41654;BMP280;30790;52.030;7.110;2022-11-03T05:02:31;100504.81;;;20.35
41654;BMP280;30790;52.030;7.110;2022-11-03T05:04:58;100508.13;;;20.37
41654;BMP280;30790;52.030;7.110;2022-11-03T05:07:29;100508.13;;;20.37
41654;BMP280;30790;52.030;7.110;2022-11-03T05:09:55;100501.84;;;20.37
41654;BMP280;30790;52.030;7.110;2022-11-03T05:12:20;100497.22;;;20.37
41654;BMP280;30790;52.030;7.110;2022-11-03T05:14:46;100502.66;;;20.37
41654;BMP280;30790;52.030;7.110;2022-11-03T05:17:30;100483.25;;;20.34
41654;BMP280;30790;52.030;7.110;2022-11-03T05:20:00;100498.53;;;20.35
41654;BMP280;30790;52.030;7.110;2022-11-03T05:22:30;100483.00;;;20.35
41654;BMP280;30790;52.030;7.110;2022-11-03T05:25:02;100493.66;;;20.37
41654;BMP280;30790;52.030;7.110;2022-11-03T05:27:27;100487.13;;;20.38
41654;BMP280;30790;52.030;7.110;2022-11-03T05:29:55;100472.94;;;20.36
41654;BMP280;30790;52.030;7.110;2022-11-03T05:32:25;100477.56;;;20.35
41654;BMP280;30790;52.030;7.110;2022-11-03T05:34:53;100485.47;;;20.37
41654;BMP280;30790;52.030;7.110;2022-11-03T05:37:33;100473.75;;;20.36
41654;BMP280;30790;52.030;7.110;2022-11-03T05:40:02;100474.59;;;20.37
41654;BMP280;30790;52.030;7.110;2022-11-03T05:42:35;100468.31;;;20.36
41654;BMP280;30790;52.030;7.110;2022-11-03T05:45:11;100466.66;;;20.35
41654;BMP280;30790;52.030;7.110;2022-11-03T05:47:40;100454.94;;;20.35
41654;BMP280;30790;52.030;7.110;2022-11-03T05:50:20;100468.56;;;20.35
41654;BMP280;30790;52.030;7.110;2022-11-03T05:52:47;100453.28;;;20.34
41654;BMP280;30790;52.030;7.110;2022-11-03T05:55:30;100444.28;;;20.33
41654;BMP280;30790;52.030;7.110;2022-11-03T05:57:58;100448.34;;;20.31
41654;BMP280;30790;52.030;7.110;2022-11-03T06:00:28;100438.25;;;20.31
41654;BMP280;30790;52.030;7.110;2022-11-03T06:02:54;100442.88;;;20.31
41654;BMP280;30790;52.030;7.110;2022-11-03T06:05:21;100436.59;;;20.30
41654;BMP280;30790;52.030;7.110;2022-11-03T06:07:53;100440.16;;;20.31
41654;BMP280;30790;52.030;7.110;2022-11-03T06:10:29;100433.63;;;20.32
41654;BMP280;30790;52.030;7.110;2022-11-03T06:13:00;100432.81;;;20.31
41654;BMP280;30790;52.030;7.110;2022-11-03T06:15:34;100424.94;;;20.35
41654;BMP280;30790;52.030;7.110;2022-11-03T06:18:09;100432.25;;;20.51
41654;BMP280;30790;52.030;7.110;2022-11-03T06:20:36;100424.78;;;20.63
41654;BMP280;30790;52.030;7.110;2022-11-03T06:23:08;100413.97;;;20.74
41654;BMP280;30790;52.030;7.110;2022-11-03T06:25:36;100429.97;;;20.87
41654;BMP280;30790;52.030;7.110;2022-11-03T06:28:04;100420.69;;;20.88
41654;BMP280;30790;52.030;7.110;2022-11-03T06:30:32;100427.91;;;20.99
41654;BMP280;30790;52.030;7.110;2022-11-03T06:33:19;100409.88;;;20.98
41654;BMP280;30790;52.030;7.110;2022-11-03T06:35:47;100411.53;;;20.99
41654;BMP280;30790;52.030;7.110;2022-11-03T06:38:27;100408.03;;;21.04
41654;BMP280;30790;52.030;7.110;2022-11-03T06:40:54;100405.59;;;21.07
41654;BMP280;30790;52.030;7.110;2022-11-03T06:43:22;100408.06;;;21.09
41654;BMP280;30790;52.030;7.110;2022-11-03T06:45:54;100408.91;;;21.09
41654;BMP280;30790;52.030;7.110;2022-11-03T06:48:23;100407.00;;;21.10
41654;BMP280;30790;52.030;7.110;2022-11-03T06:50:49;100400.13;;;21.07
41654;BMP280;30790;52.030;7.110;2022-11-03T06:53:20;100403.94;;;21.06
41654;BMP280;30790;52.030;7.110;2022-11-03T06:55:47;100397.94;;;21.04
41654;BMP280;30790;52.030;7.110;2022-11-03T06:58:20;100403.69;;;21.08
41654;BMP280;30790;52.030;7.110;2022-11-03T07:00:47;100385.66;;;21.07
41654;BMP280;30790;52.030;7.110;2022-11-03T07:03:21;100385.19;;;21.10
41654;BMP280;30790;52.030;7.110;2022-11-03T07:05:47;100370.63;;;21.04
41654;BMP280;30790;52.030;7.110;2022-11-03T07:10:42;100381.03;;;21.07
41654;BMP280;30790;52.030;7.110;2022-11-03T07:13:18;100387.09;;;21.09
41654;BMP280;30790;52.030;7.110;2022-11-03T07:15:46;100390.31;;;21.06
41654;BMP280;30790;52.030;7.110;2022-11-03T07:18:16;100386.81;;;21.11
41654;BMP280;30790;52.030;7.110;2022-11-03T07:20:44;100370.72;;;21.09
41654;BMP280;30790;52.030;7.110;2022-11-03T07:23:12;100379.72;;;21.10
41654;BMP280;30790;52.030;7.110;2022-11-03T07:25:39;100378.63;;;21.11
41654;BMP280;30790;52.030;7.110;2022-11-03T07:28:04;100368.84;;;21.15
41654;BMP280;30790;52.030;7.110;2022-11-03T07:30:33;100368.03;;;21.14
41654;BMP280;30790;52.030;7.110;2022-11-03T07:33:01;100354.91;;;21.11
41654;BMP280;30790;52.030;7.110;2022-11-03T07:35:35;100351.59;;;21.09
41654;BMP280;30790;52.030;7.110;2022-11-03T07:38:09;100360.34;;;21.11
41654;BMP280;30790;52.030;7.110;2022-11-03T07:40:36;100354.06;;;21.11
41654;BMP280;30790;52.030;7.110;2022-11-03T07:43:22;100357.06;;;21.09
41654;BMP280;30790;52.030;7.110;2022-11-03T07:45:53;100345.06;;;21.10
41654;BMP280;30790;52.030;7.110;2022-11-03T07:48:25;100349.44;;;21.11
41654;BMP280;30790;52.030;7.110;2022-11-03T07:50:53;100345.00;;;21.05
41654;BMP280;30790;52.030;7.110;2022-11-03T07:53:40;100345.53;;;21.02
41654;BMP280;30790;52.030;7.110;2022-11-03T07:58:38;100332.13;;;21.01
41654;BMP280;30790;52.030;7.110;2022-11-03T08:03:50;100319.78;;;20.93
41654;BMP280;30790;52.030;7.110;2022-11-03T08:06:16;100323.09;;;20.95
41654;BMP280;30790;52.030;7.110;2022-11-03T08:08:41;100323.59;;;20.92
41654;BMP280;30790;52.030;7.110;2022-11-03T08:11:06;100326.34;;;20.92
41654;BMP280;30790;52.030;7.110;2022-11-03T08:13:32;100329.06;;;20.92
41654;BMP280;30790;52.030;7.110;2022-11-03T08:15:57;100316.50;;;20.91
41654;BMP280;30790;52.030;7.110;2022-11-03T08:18:23;100318.75;;;20.99
41654;BMP280;30790;52.030;7.110;2022-11-03T08:20:48;100314.34;;;20.93
41654;BMP280;30790;52.030;7.110;2022-11-03T08:23:14;100313.50;;;20.92
41654;BMP280;30790;52.030;7.110;2022-11-03T08:25:39;100312.69;;;20.92
41654;BMP280;30790;52.030;7.110;2022-11-03T08:28:05;100308.13;;;21.03
41654;BMP280;30790;52.030;7.110;2022-11-03T08:30:30;100316.84;;;21.32
41654;BMP280;30790;52.030;7.110;2022-11-03T08:32:55;100310.06;;;21.34
41654;BMP280;30790;52.030;7.110;2022-11-03T08:35:21;100311.31;;;21.21
41654;BMP280;30790;52.030;7.110;2022-11-03T08:37:46;100303.59;;;21.13
41654;BMP280;30790;52.030;7.110;2022-11-03T08:40:11;100299.75;;;21.09
41654;BMP280;30790;52.030;7.110;2022-11-03T08:42:37;100296.16;;;21.09
41654;BMP280;30790;52.030;7.110;2022-11-03T08:45:03;100290.97;;;21.07
41654;BMP280;30790;52.030;7.110;2022-11-03T08:47:28;100295.88;;;21.05
41654;BMP280;30790;52.030;7.110;2022-11-03T08:49:54;100283.56;;;21.03
41654;BMP280;30790;52.030;7.110;2022-11-03T08:52:19;100286.31;;;21.03
41654;BMP280;30790;52.030;7.110;2022-11-03T08:54:45;100284.97;;;21.05
41654;BMP280;30790;52.030;7.110;2022-11-03T08:57:11;100283.81;;;20.96
41654;BMP280;30790;52.030;7.110;2022-11-03T08:59:36;100281.91;;;20.96
41654;BMP280;30790;52.030;7.110;2022-11-03T09:02:02;100279.69;;;20.93
41654;BMP280;30790;52.030;7.110;2022-11-03T09:04:27;100287.66;;;21.00
41654;BMP280;30790;52.030;7.110;2022-11-03T09:06:53;100267.41;;;20.91
41654;BMP280;30790;52.030;7.110;2022-11-03T09:09:19;100265.75;;;20.90
41654;BMP280;30790;52.030;7.110;2022-11-03T09:14:10;100268.50;;;20.95
41654;BMP280;30790;52.030;7.110;2022-11-03T09:16:35;100260.88;;;20.97
41654;BMP280;30790;52.030;7.110;2022-11-03T09:19:01;100258.69;;;20.94
41654;BMP280;30790;52.030;7.110;2022-11-03T09:23:51;100241.00;;;21.02
41654;BMP280;30790;52.030;7.110;2022-11-03T09:26:16;100226.78;;;20.99
41654;BMP280;30790;52.030;7.110;2022-11-03T09:28:42;100230.91;;;21.02
41654;BMP280;30790;52.030;7.110;2022-11-03T09:31:07;100232.56;;;21.03
41654;BMP280;30790;52.030;7.110;2022-11-03T09:33:32;100220.00;;;21.02
41654;BMP280;30790;52.030;7.110;2022-11-03T09:35:57;100219.47;;;21.05
41654;BMP280;30790;52.030;7.110;2022-11-03T09:38:23;100211.81;;;21.02
41654;BMP280;30790;52.030;7.110;2022-11-03T09:40:48;100210.72;;;21.03
41654;BMP280;30790;52.030;7.110;2022-11-03T09:43:13;100208.56;;;21.05
41654;BMP280;30790;52.030;7.110;2022-11-03T09:45:39;100213.47;;;21.08
41654;BMP280;30790;52.030;7.110;2022-11-03T09:48:08;100201.75;;;21.08
41654;BMP280;30790;52.030;7.110;2022-11-03T09:50:35;100206.38;;;21.07
41654;BMP280;30790;52.030;7.110;2022-11-03T09:53:00;100191.69;;;21.13
41654;BMP280;30790;52.030;7.110;2022-11-03T09:55:26;100189.50;;;21.10
41654;BMP280;30790;52.030;7.110;2022-11-03T09:57:54;100185.13;;;21.09
41654;BMP280;30790;52.030;7.110;2022-11-03T10:00:22;100187.28;;;21.07
41654;BMP280;30790;52.030;7.110;2022-11-03T10:02:48;100167.66;;;21.10
41654;BMP280;30790;52.030;7.110;2022-11-03T10:05:19;100165.44;;;21.07
41654;BMP280;30790;52.030;7.110;2022-11-03T10:07:47;100171.50;;;21.09
41654;BMP280;30790;52.030;7.110;2022-11-03T10:10:18;100164.88;;;21.05
41654;BMP280;30790;52.030;7.110;2022-11-03T10:12:45;100169.53;;;21.05
41654;BMP280;30790;52.030;7.110;2022-11-03T10:15:13;100168.16;;;21.07
41654;BMP280;30790;52.030;7.110;2022-11-03T10:17:39;100155.06;;;21.04
41654;BMP280;30790;52.030;7.110;2022-11-03T10:20:10;100137.84;;;20.98
41654;BMP280;30790;52.030;7.110;2022-11-03T10:22:38;100134.81;;;20.95
41654;BMP280;30790;52.030;7.110;2022-11-03T10:25:36;100120.88;;;20.91
41654;BMP280;30790;52.030;7.110;2022-11-03T10:30:48;100099.88;;;20.87
41654;BMP280;30790;52.030;7.110;2022-11-03T10:33:34;100102.59;;;20.87
41654;BMP280;30790;52.030;7.110;2022-11-03T10:36:02;100095.50;;;20.86
41654;BMP280;30790;52.030;7.110;2022-11-03T10:38:30;100085.69;;;20.90
41654;BMP280;30790;52.030;7.110;2022-11-03T10:41:20;100075.88;;;20.94
41654;BMP280;30790;52.030;7.110;2022-11-03T10:44:02;100069.06;;;20.91
41654;BMP280;30790;52.030;7.110;2022-11-03T10:46:31;100067.41;;;20.90
41654;BMP280;30790;52.030;7.110;2022-11-03T10:49:15;100060.88;;;20.91
41654;BMP280;30790;52.030;7.110;2022-11-03T10:51:44;100051.03;;;20.90
41654;BMP280;30790;52.030;7.110;2022-11-03T10:54:13;100041.75;;;20.86
41654;BMP280;30790;52.030;7.110;2022-11-03T10:56:41;100043.41;;;20.87
41654;BMP280;30790;52.030;7.110;2022-11-03T10:59:16;100042.56;;;20.82
41654;BMP280;30790;52.030;7.110;2022-11-03T11:01:43;100030.28;;;20.84
41654;BMP280;30790;52.030;7.110;2022-11-03T11:04:14;100040.66;;;20.82
41654;BMP280;30790;52.030;7.110;2022-11-03T11:06:40;100036.50;;;20.80
41654;BMP280;30790;52.030;7.110;2022-11-03T11:09:09;100035.44;;;20.81
41654;BMP280;30790;52.030;7.110;2022-11-03T11:11:36;100028.91;;;20.82
41654;BMP280;30790;52.030;7.110;2022-11-03T11:16:59;100021.78;;;20.81
41654;BMP280;30790;52.030;7.110;2022-11-03T11:19:25;100014.44;;;20.81
41654;BMP280;30790;52.030;7.110;2022-11-03T11:30:03;99978.16;;;20.81
41654;BMP280;30790;52.030;7.110;2022-11-03T11:35:06;99955.22;;;20.77
41654;BMP280;30790;52.030;7.110;2022-11-03T11:37:33;99957.16;;;20.81
41654;BMP280;30790;52.030;7.110;2022-11-03T11:39:58;99950.31;;;20.79
41654;BMP280;30790;52.030;7.110;2022-11-03T11:42:24;99949.53;;;20.83
41654;BMP280;30790;52.030;7.110;2022-11-03T11:44:59;99942.41;;;20.77
41654;BMP280;30790;52.030;7.110;2022-11-03T11:47:44;99941.09;;;20.85
41654;BMP280;30790;52.030;7.110;2022-11-03T11:55:25;99936.13;;;20.77
41654;BMP280;30790;52.030;7.110;2022-11-03T11:57:53;99923.84;;;20.74
41654;BMP280;30790;52.030;7.110;2022-11-03T12:00:21;99925.75;;;20.74
41654;BMP280;30790;52.030;7.110;2022-11-03T12:02:48;99922.78;;;20.80
41654;BMP280;30790;52.030;7.110;2022-11-03T12:05:23;99908.84;;;20.72
41654;BMP280;30790;52.030;7.110;2022-11-03T12:07:49;99911.84;;;20.75
41654;BMP280;30790;52.030;7.110;2022-11-03T12:10:17;99908.56;;;20.73
41654;BMP280;30790;52.030;7.110;2022-11-03T12:12:43;99891.94;;;20.75
41654;BMP280;30790;52.030;7.110;2022-11-03T12:18:31;99884.31;;;20.72
41654;BMP280;30790;52.030;7.110;2022-11-03T12:20:59;99869.31;;;20.74
41654;BMP280;30790;52.030;7.110;2022-11-03T12:23:40;99864.66;;;20.70
41654;BMP280;30790;52.030;7.110;2022-11-03T12:26:17;99853.75;;;20.70
41654;BMP280;30790;52.030;7.110;2022-11-03T12:28:59;99853.75;;;20.70
41654;BMP280;30790;52.030;7.110;2022-11-03T12:31:24;99846.09;;;20.61
41654;BMP280;30790;52.030;7.110;2022-11-03T12:33:49;99845.03;;;20.67
41654;BMP280;30790;52.030;7.110;2022-11-03T12:36:14;99838.19;;;20.65
41654;BMP280;30790;52.030;7.110;2022-11-03T12:38:40;99831.66;;;20.66
41654;BMP280;30790;52.030;7.110;2022-11-03T12:41:05;99819.94;;;20.65
41654;BMP280;30790;52.030;7.110;2022-11-03T12:43:49;99805.22;;;20.66
41654;BMP280;30790;52.030;7.110;2022-11-03T12:46:16;99802.47;;;20.66
41654;BMP280;30790;52.030;7.110;2022-11-03T12:48:41;99794.56;;;20.65
41654;BMP280;30790;52.030;7.110;2022-11-03T12:51:26;99792.13;;;20.63
41654;BMP280;30790;52.030;7.110;2022-11-03T12:53:51;99778.22;;;20.65
41654;BMP280;30790;52.030;7.110;2022-11-03T12:56:17;99782.56;;;20.66
41654;BMP280;30790;52.030;7.110;2022-11-03T12:58:44;99787.47;;;20.64
41654;BMP280;30790;52.030;7.110;2022-11-03T13:01:09;99783.94;;;20.68
41654;BMP280;30790;52.030;7.110;2022-11-03T13:03:35;99773.56;;;20.65
41654;BMP280;30790;52.030;7.110;2022-11-03T13:06:03;99773.31;;;20.62
41654;BMP280;30790;52.030;7.110;2022-11-03T13:08:29;99762.13;;;20.63
41654;BMP280;30790;52.030;7.110;2022-11-03T13:10:55;99750.13;;;20.59
41654;BMP280;30790;52.030;7.110;2022-11-03T13:13:20;99752.56;;;20.61
41654;BMP280;30790;52.030;7.110;2022-11-03T13:15:45;99752.84;;;20.64
41654;BMP280;30790;52.030;7.110;2022-11-03T13:18:11;99739.75;;;20.61
41654;BMP280;30790;52.030;7.110;2022-11-03T13:20:36;99736.50;;;20.64
41654;BMP280;30790;52.030;7.110;2022-11-03T13:23:03;99733.22;;;20.62
41654;BMP280;30790;52.030;7.110;2022-11-03T13:25:28;99716.84;;;20.57
41654;BMP280;30790;52.030;7.110;2022-11-03T13:27:54;99721.75;;;20.60
41654;BMP280;30790;52.030;7.110;2022-11-03T13:30:21;99721.50;;;20.67
41654;BMP280;30790;52.030;7.110;2022-11-03T13:32:46;99720.66;;;20.66
41654;BMP280;30790;52.030;7.110;2022-11-03T13:35:12;99701.31;;;20.63
41654;BMP280;30790;52.030;7.110;2022-11-03T13:37:37;99695.59;;;20.64
41654;BMP280;30790;52.030;7.110;2022-11-03T13:40:03;99678.69;;;20.62
41654;BMP280;30790;52.030;7.110;2022-11-03T13:42:28;99682.22;;;20.63
41654;BMP280;30790;52.030;7.110;2022-11-03T13:44:54;99687.41;;;20.70
41654;BMP280;30790;52.030;7.110;2022-11-03T13:47:21;99673.78;;;20.59
41654;BMP280;30790;52.030;7.110;2022-11-03T13:49:46;99659.59;;;20.57
41654;BMP280;30790;52.030;7.110;2022-11-03T13:52:11;99657.97;;;20.56
41654;BMP280;30790;52.030;7.110;2022-11-03T13:54:36;99659.59;;;20.57
41654;BMP280;30790;52.030;7.110;2022-11-03T13:57:02;99649.50;;;20.58
41654;BMP280;30790;52.030;7.110;2022-11-03T13:59:28;99654.41;;;20.61
41654;BMP280;30790;52.030;7.110;2022-11-03T14:01:53;99656.06;;;20.57
41654;BMP280;30790;52.030;7.110;2022-11-03T14:04:18;99646.75;;;20.53
41654;BMP280;30790;52.030;7.110;2022-11-03T14:06:43;99648.41;;;20.54
41654;BMP280;30790;52.030;7.110;2022-11-03T14:09:09;99632.88;;;20.49
41654;BMP280;30790;52.030;7.110;2022-11-03T14:11:34;99632.31;;;20.52
41654;BMP280;30790;52.030;7.110;2022-11-03T14:14:18;99621.72;;;20.56
41654;BMP280;30790;52.030;7.110;2022-11-03T14:16:43;99609.44;;;20.58
41654;BMP280;30790;52.030;7.110;2022-11-03T14:19:08;99601.78;;;20.50
41654;BMP280;30790;52.030;7.110;2022-11-03T14:21:33;99598.50;;;20.53
41654;BMP280;30790;52.030;7.110;2022-11-03T14:24:01;99600.16;;;20.59
41654;BMP280;30790;52.030;7.110;2022-11-03T14:26:27;99594.13;;;20.73
41654;BMP280;30790;52.030;7.110;2022-11-03T14:28:52;99591.38;;;20.88
41654;BMP280;30790;52.030;7.110;2022-11-03T14:31:17;99582.63;;;20.96
41654;BMP280;30790;52.030;7.110;2022-11-03T14:33:42;99566.25;;;20.96
41654;BMP280;30790;52.030;7.110;2022-11-03T14:36:08;99553.16;;;20.98
41654;BMP280;30790;52.030;7.110;2022-11-03T14:38:33;99550.97;;;21.00
41654;BMP280;30790;52.030;7.110;2022-11-03T14:40:58;99549.59;;;21.03
41654;BMP280;30790;52.030;7.110;2022-11-03T14:43:42;99544.94;;;21.08
41654;BMP280;30790;52.030;7.110;2022-11-03T14:46:07;99535.41;;;21.11
41654;BMP280;30790;52.030;7.110;2022-11-03T14:48:32;99525.00;;;21.08
41654;BMP280;30790;52.030;7.110;2022-11-03T14:50:58;99527.50;;;21.09
41654;BMP280;30790;52.030;7.110;2022-11-03T14:53:23;99532.63;;;21.16
41654;BMP280;30790;52.030;7.110;2022-11-03T14:55:48;99517.09;;;21.16
41654;BMP280;30790;52.030;7.110;2022-11-03T14:58:14;99521.72;;;21.16
41654;BMP280;30790;52.030;7.110;2022-11-03T15:00:39;99517.66;;;21.13
41654;BMP280;30790;52.030;7.110;2022-11-03T15:03:04;99518.72;;;21.17
41654;BMP280;30790;52.030;7.110;2022-11-03T15:05:29;99510.53;;;21.17
41654;BMP280;30790;52.030;7.110;2022-11-03T15:08:11;99514.06;;;21.18